You are not logged in, Click here to log in
香港國際機場HKG / VHHH 香港翔天路1號
ICAO: VHHH Country: 香港翔天路1號
Latitude: 22.308 Longitude: 113.918
Total Arrivals: 635 Total Departures: 685
Latest Arrival: HX9252 (ZSPD-VHHH)Ivan. Lee Latest Departure: CI938 (VHHH-RCKH)Ivan. Lee
Scenery: http://www.qtc-hk.com/wp-content/uploads/2013/12/20110405092437553.jpg
METAR : VHHH 220900Z VRB03KT CAVOK 24/13 Q1023 NOSIG

香港國際機場HKG